Flight Track Log - Related Links

Times and Time Zones

All times are in EDT time to prevent confusion due to time zone crossing. See the DKT1542 flight status page for this flight to view local times or setup timezone preferences in your user account.

Time Position Orientation Groundspeed Altitude Reporting Facility
EDT Latitude Longitude Course Direction KTS MPH feet Rate Location/Type
Fri 08:35:11 AM 43.5536 -96.7722 232° Southwest 188 216 2,500  Level Minneapolis Center
Fri 08:36:13 AM 43.5272 -96.8194 232° Southwest 159 183 4,100 1,366 Climbing Minneapolis Center
Fri 08:37:14 AM 43.5589 -96.8819 305° West 185 213 5,300 1,220 Climbing Minneapolis Center
Fri 08:38:16 AM 43.5814 -96.9522 294° West 195 224 6,600 1,220 Climbing Minneapolis Center
Fri 08:39:17 AM 43.6147 -97.0136 307° West 196 226 7,800 976 Climbing Minneapolis Center
Fri 08:40:19 AM 43.6533 -97.0742 311° West 201 231 8,600 878 Climbing Minneapolis Center
Fri 08:41:20 AM 43.6892 -97.1439 305° West 210 242 9,600 927 Climbing Minneapolis Center
Fri 08:42:22 AM 43.7225 -97.2142 303° West 216 249 10,500 927 Climbing Minneapolis Center
Fri 08:43:23 AM 43.7625 -97.2994 303° West 218 251 11,500 780 Climbing Minneapolis Center
Fri 08:44:25 AM 43.7978 -97.3672 306° West 218 251 12,100 683 Climbing Minneapolis Center
Fri 08:45:26 AM 43.8372 -97.4325 310° West 218 251 12,900 732 Climbing Minneapolis Center
Fri 08:46:28 AM 43.8725 -97.5031 305° West 220 253 13,600 683 Climbing Minneapolis Center
Fri 08:47:29 AM 43.9081 -97.5719 306° West 220 253 14,300 634 Climbing Minneapolis Center
Fri 08:48:31 AM 43.9464 -97.6369 309° West 220 253 14,900 585 Climbing Minneapolis Center
Fri 08:49:32 AM 43.9808 -97.7061 305° West 220 253 15,500 537 Climbing Minneapolis Center
Fri 08:50:34 AM 44.0183 -97.7750 307° West 220 253 16,000 293 Climbing Minneapolis Center
Fri 08:51:35 AM 44.0608 -97.8614 304° West 223 257 16,100 49 Climbing Minneapolis Center
Fri 08:52:36 AM 44.1019 -97.9369 307° West 239 275 16,100 -49 Level Minneapolis Center
Fri 08:53:38 AM 44.1467 -98.0139 309° West 251 289 16,000  Descending Minneapolis Center
Fri 08:54:39 AM 44.1928 -98.0900 310° West 253 291 16,100 49 Climbing Minneapolis Center
Fri 08:55:41 AM 44.2511 -98.1475 325° Northwest 253 291 16,100  Level Minneapolis Center
Fri 08:56:42 AM 44.2983 -98.2239 311° West 259 298 16,100 -49 Level Minneapolis Center
Fri 08:57:44 AM 44.3408 -98.3036 307° West 258 297 16,000 -49 Descending Minneapolis Center
Fri 08:58:45 AM 44.3833 -98.3797 308° West 258 297 16,000  Level Minneapolis Center
Fri 08:59:47 AM 44.4400 -98.4719 311° West 258 297 16,000 49 Level Minneapolis Center
Fri 09:00:48 AM 44.4836 -98.5528 307° West 258 297 16,100 49 Climbing Minneapolis Center
Fri 09:01:50 AM 44.5347 -98.6261 314° West 259 298 16,100  Level Minneapolis Center
Fri 09:02:51 AM 44.5783 -98.7075 307° West 259 298 16,100  Level Minneapolis Center
Fri 09:03:53 AM 44.6306 -98.7781 316° Northwest 260 299 16,100 49 Level Minneapolis Center
Fri 09:04:54 AM 44.6692 -98.8639 302° West 261 300 16,200 49 Climbing Minneapolis Center
Fri 09:05:56 AM 44.7050 -98.9531 300° West 261 300 16,200 -98 Level Minneapolis Center
Fri 09:06:57 AM 44.7472 -99.0381 305° West 262 302 16,000 -98 Descending Minneapolis Center
Fri 09:07:59 AM 44.7908 -99.1489 299° West 267 307 16,000  Level Minneapolis Center
Fri 09:09:00 AM 44.8397 -99.2264 312° West 266 306 16,000  Level Minneapolis Center
Fri 09:10:02 AM 44.8836 -99.3119 306° West 267 307 16,000  Level Minneapolis Center
Fri 09:11:03 AM 44.9344 -99.3864 314° West 267 307 16,000  Level Minneapolis Center
Fri 09:12:05 AM 44.9847 -99.4619 313° West 267 307 16,000 49 Level Minneapolis Center
Fri 09:13:06 AM 45.0242 -99.5519 302° West 267 307 16,100 146 Climbing Minneapolis Center
Fri 09:14:08 AM 45.0714 -99.6322 310° West 267 307 16,300  Climbing Minneapolis Center
Fri 09:15:09 AM 45.1242 -99.7297 308° West 267 307 16,100 -98 Descending Minneapolis Center
Fri 09:16:11 AM 45.1708 -99.8108 309° West 267 307 16,100 49 Level Minneapolis Center
Fri 09:17:12 AM 45.2181 -99.8892 311° West 267 307 16,200 -98 Climbing Minneapolis Center
Fri 09:18:14 AM 45.2672 -99.9631 313° West 272 313 15,900 -98 Descending Minneapolis Center
Fri 09:19:15 AM 45.3069 -100.0517 303° West 271 312 16,000 98 Climbing Minneapolis Center
Fri 09:20:17 AM 45.3567 -100.1297 312° West 270 311 16,100  Climbing Minneapolis Center
Fri 09:21:18 AM 45.4047 -100.2103 310° West 270 311 16,000  Descending Minneapolis Center
Fri 09:22:20 AM 45.4586 -100.3125 307° West 270 311 16,100 49 Climbing Minneapolis Center
Fri 09:23:21 AM 45.5036 -100.3978 307° West 270 311 16,100 98 Level Minneapolis Center
Fri 09:24:23 AM 45.5464 -100.4833 306° West 269 310 16,300  Climbing Minneapolis Center
Fri 09:25:24 AM 45.5897 -100.5661 307° West 267 307 16,100 -98 Descending Minneapolis Center
Fri 09:26:26 AM 45.6403 -100.6442 313° West 269 310 16,100  Level Minneapolis Center
Fri 09:27:27 AM 45.6844 -100.7297 306° West 269 310 16,100 49 Level Minneapolis Center
Fri 09:28:29 AM 45.7311 -100.8122 309° West 271 312 16,200 48 Climbing Minneapolis Center
Fri 09:29:31 AM 45.7758 -100.8972 307° West 269 310 16,200  Level Minneapolis Center
Fri 09:30:32 AM 45.8408 -100.9803 318° Northwest 269 310 16,200 49 Level Minneapolis Center
Fri 09:31:34 AM 45.8903 -101.0575 313° West 268 308 16,300  Climbing Minneapolis Center
Fri 09:32:35 AM 45.9417 -101.1311 315° West 266 306 16,200 -49 Descending Minneapolis Center
Fri 09:33:37 AM 45.9903 -101.2122 311° West 266 306 16,200  Level Minneapolis Center
Fri 09:34:38 AM 46.0364 -101.2942 309° West 266 306 16,200  Level Minneapolis Center
Fri 09:35:40 AM 46.0881 -101.3708 314° West 266 306 16,200  Level Minneapolis Center
Fri 09:36:41 AM 46.1322 -101.4553 307° West 266 306 16,200  Level Minneapolis Center
Fri 09:37:43 AM 46.1872 -101.5581 308° West 266 306 16,200 -48 Level Minneapolis Center
Fri 09:38:47 AM 46.2300 -101.6469 305° West 266 306 16,100 -384 Descending Minneapolis Center
Fri 09:39:48 AM 46.2703 -101.7433 301° West 275 316 15,400 -585 Descending Minneapolis Center
Fri 09:40:50 AM 46.3225 -101.8317 311° West 285 328 14,900 -677 Descending Minneapolis Center
Fri 09:41:52 AM 46.3656 -101.9314 302° West 287 330 14,000 -537 Descending Minneapolis Center
Fri 09:42:53 AM 46.4169 -102.0292 307° West 293 337 13,800 -146 Descending Minneapolis Center
Fri 09:43:55 AM 46.4725 -102.1083 316° Northwest 286 329 13,700 -242 Descending Minneapolis Center
Fri 09:44:57 AM 46.5097 -102.2058 299° West 279 321 13,300 -581 Descending Minneapolis Center
Fri 09:45:59 AM 46.5536 -102.2992 304° West 278 320 12,500 -1,024 Descending Minneapolis Center
Fri 09:47:00 AM 46.6033 -102.4192 301° West 284 327 11,200 -1,707 Descending Minneapolis Center
Fri 09:48:02 AM 46.6550 -102.5236 306° West 303 349 9,000 -2,371 Descending Minneapolis Center
Fri 09:49:04 AM 46.7086 -102.6172 310° West 307 353 6,300 -2,613 Descending Minneapolis Center
Fri 09:51:00 AM 46.7754 -102.7806 301° West  Level FlightAware Approximate

Login

Don't have an account? Register now (free) for customized features, flight alerts, and more!